Time;durP1;ratioP1;P1;durP2;ratioP2;P2;SDS_P1;SDS_P2;PMS_P1;PMS_P2;Temp;Humidity;BMP_temperature;BMP_pressure;BME280_temperature;BME280_humidity;BME280_pressure;Samples;Min_cycle;Max_cycle;Signal;HPM_P1;HPM_P2
2022/04/20 00:01:46;;;;;;;14.15;10.77;;;;;;;;;;4974559;28;96200;-77
2022/04/20 00:04:13;;;;;;;14.35;10.15;;;;;;;;;;4978482;28;94182;-77
2022/04/20 00:06:39;;;;;;;13.43;10.02;;;;;;;;;;4976436;28;94065;-77
2022/04/20 00:09:06;;;;;;;13.13;10.23;;;;;;;;;;4968720;28;94174;-76
2022/04/20 00:11:32;;;;;;;13.93;10.13;;;;;;;;;;4979016;28;94143;-77
2022/04/20 00:13:59;;;;;;;13.65;9.95;;;;;;;;;;4976758;28;94015;-76
2022/04/20 00:16:25;;;;;;;14.15;10.48;;;;;;;;;;4977320;28;94725;-77
2022/04/20 00:18:52;;;;;;;15.50;8.65;;;;;;;;;;4986051;28;93040;-76
2022/04/20 00:21:24;;;;;;;17.38;11.15;;;;;;;;;;4980581;28;93879;-76
2022/04/20 00:23:51;;;;;;;16.83;9.90;;;;;;;;;;4977008;28;94122;-76
2022/04/20 00:26:17;;;;;;;18.00;10.27;;;;;;;;;;4980124;28;96896;-76
2022/04/20 00:28:44;;;;;;;15.27;10.85;;;;;;;;;;4972997;28;96044;-76
2022/04/20 00:31:10;;;;;;;15.55;10.23;;;;;;;;;;4982527;28;93834;-76
2022/04/20 00:33:37;;;;;;;16.52;10.15;;;;;;;;;;4980883;28;94261;-76
2022/04/20 00:36:04;;;;;;;14.52;9.85;;;;;;;;;;4982449;28;94212;-75
2022/04/20 00:38:30;;;;;;;13.70;9.45;;;;;;;;;;4979220;28;94050;-76
2022/04/20 00:40:57;;;;;;;14.60;10.40;;;;;;;;;;4981445;28;93714;-76
2022/04/20 00:43:23;;;;;;;15.32;10.43;;;;;;;;;;4980557;28;93898;-76
2022/04/20 00:45:50;;;;;;;15.70;10.48;;;;;;;;;;4981213;28;93110;-76
2022/04/20 00:48:18;;;;;;;13.73;10.70;;;;;;;;;;4981804;28;94669;-76
2022/04/20 00:50:44;;;;;;;18.02;11.02;;;;;;;;;;4979399;28;96981;-76
2022/04/20 00:53:11;;;;;;;16.95;10.55;;;;;;;;;;4995758;28;98075;-76
2022/04/20 00:55:37;;;;;;;10.68;9.57;;;;;;;;;;4978096;28;94702;-76
2022/04/20 00:58:07;;;;;;;15.95;11.32;;;;;;;;;;4979706;28;92822;-76
2022/04/20 01:00:35;;;;;;;14.32;10.50;;;;;;;;;;4985527;28;95547;-76
2022/04/20 01:03:02;;;;;;;13.07;10.40;;;;;;;;;;4989638;28;94231;-76
2022/04/20 01:05:42;;;;;;;20.90;11.30;;;;;;;;;;5005351;27;93327;-76
2022/04/20 01:08:15;;;;;;;13.40;9.98;;;;;;;;;;5004895;28;95536;-76
2022/04/20 01:10:59;;;;;;;15.18;11.25;;;;;;;;;;4979087;28;94780;-76
2022/04/20 01:13:33;;;;;;;14.20;10.57;;;;;;;;;;4979545;28;95006;-76
2022/04/20 01:16:20;;;;;;;14.35;10.07;;;;;;;;;;4972859;28;96896;-76
2022/04/20 01:19:03;;;;;;;13.60;9.23;;;;;;;;;;4975093;28;93853;-76
2022/04/20 01:21:43;;;;;;;12.10;8.95;;;;;;;;;;4993212;28;95635;-76
2022/04/20 01:24:29;;;;;;;13.93;9.85;;;;;;;;;;4971449;28;94780;-76
2022/04/20 01:27:24;;;;;;;12.23;8.50;;;;;;;;;;4975060;28;94312;-76
2022/04/20 01:30:11;;;;;;;11.73;8.73;;;;;;;;;;4981361;28;94893;-76
2022/04/20 01:33:04;;;;;;;16.58;9.23;;;;;;;;;;4977332;28;94110;-76
2022/04/20 01:35:36;;;;;;;14.63;9.55;;;;;;;;;;4991714;28;93143;-76
2022/04/20 01:38:03;;;;;;;11.45;8.80;;;;;;;;;;4982902;28;95231;-76
2022/04/20 01:40:30;;;;;;;15.70;8.57;;;;;;;;;;4976557;28;94086;-76
2022/04/20 01:42:56;;;;;;;13.60;7.72;;;;;;;;;;4985324;28;95491;-76
2022/04/20 01:45:23;;;;;;;16.02;8.05;;;;;;;;;;4997367;28;94034;-77
2022/04/20 01:48:16;;;;;;;12.52;8.48;;;;;;;;;;5002461;28;92935;-76
2022/04/20 01:53:51;;;;;;;8.60;7.55;;;;;;;;;;4999901;28;95445;-76
2022/04/20 01:56:39;;;;;;;9.45;7.43;;;;;;;;;;5021693;28;92694;-76
2022/04/20 01:59:29;;;;;;;8.35;7.45;;;;;;;;;;5003249;28;93988;-76
2022/04/20 02:04:53;;;;;;;12.10;6.97;;;;;;;;;;5023776;27;94123;-76
2022/04/20 02:07:20;;;;;;;7.00;6.30;;;;;;;;;;5004421;28;95695;-76
2022/04/20 02:09:47;;;;;;;13.45;6.97;;;;;;;;;;5002521;28;95446;-76
2022/04/20 02:12:16;;;;;;;7.72;6.35;;;;;;;;;;5002192;28;97806;-76
2022/04/20 02:15:13;;;;;;;6.55;5.93;;;;;;;;;;5022567;28;95541;-76
2022/04/20 02:18:02;;;;;;;6.82;6.22;;;;;;;;;;5003870;28;92470;-76
2022/04/20 02:21:04;;;;;;;9.88;6.45;;;;;;;;;;4990345;28;92493;-76
2022/04/20 02:23:30;;;;;;;10.93;8.52;;;;;;;;;;5004756;28;92944;-76
2022/04/20 02:25:56;;;;;;;7.75;6.13;;;;;;;;;;5004965;28;96057;-76
2022/04/20 02:28:23;;;;;;;6.60;5.97;;;;;;;;;;5004615;28;95105;-76
2022/04/20 02:30:49;;;;;;;9.45;6.20;;;;;;;;;;5005024;28;92975;-76
2022/04/20 02:33:16;;;;;;;7.22;6.60;;;;;;;;;;5002553;28;95569;-76
2022/04/20 02:35:42;;;;;;;6.47;5.97;;;;;;;;;;5003471;28;95647;-76
2022/04/20 02:38:10;;;;;;;7.90;6.30;;;;;;;;;;5005714;28;94551;-76
2022/04/20 02:40:43;;;;;;;7.07;6.38;;;;;;;;;;5005532;28;94765;-76
2022/04/20 02:43:09;;;;;;;6.70;5.65;;;;;;;;;;5007211;28;93517;-75
2022/04/20 02:45:36;;;;;;;8.75;6.10;;;;;;;;;;5001390;28;95403;-76
2022/04/20 02:48:03;;;;;;;5.93;5.28;;;;;;;;;;5003048;28;94134;-76
2022/04/20 02:50:29;;;;;;;7.35;5.70;;;;;;;;;;5005028;28;93132;-76
2022/04/20 02:52:56;;;;;;;6.82;6.22;;;;;;;;;;5005473;28;93361;-76
2022/04/20 02:55:23;;;;;;;6.32;5.75;;;;;;;;;;5000715;28;95763;-76
2022/04/20 02:57:50;;;;;;;6.85;6.20;;;;;;;;;;5005856;28;93106;-76
2022/04/20 03:00:17;;;;;;;7.00;6.30;;;;;;;;;;5003163;28;94863;-76
2022/04/20 03:02:52;;;;;;;7.95;5.80;;;;;;;;;;5005256;28;96604;-76
2022/04/20 03:05:19;;;;;;;5.85;5.43;;;;;;;;;;5007264;28;92605;-76
2022/04/20 03:07:45;;;;;;;6.47;5.90;;;;;;;;;;5001184;28;94272;-76
2022/04/20 03:10:13;;;;;;;8.30;5.40;;;;;;;;;;4999526;28;92927;-76
2022/04/20 03:12:43;;;;;;;7.65;5.65;;;;;;;;;;5002720;28;95495;-76
2022/04/20 03:15:10;;;;;;;6.25;5.72;;;;;;;;;;5003560;28;93673;-76
2022/04/20 03:17:37;;;;;;;8.60;5.30;;;;;;;;;;5004166;28;92181;-76
2022/04/20 03:20:05;;;;;;;20.65;5.68;;;;;;;;;;4999360;28;93110;-76
2022/04/20 03:22:32;;;;;;;7.25;5.40;;;;;;;;;;5004835;28;92926;-76
2022/04/20 03:24:59;;;;;;;5.43;4.93;;;;;;;;;;5003949;28;96351;-76
2022/04/20 03:27:48;;;;;;;5.47;5.07;;;;;;;;;;4995355;28;94940;-76
2022/04/20 03:30:17;;;;;;;5.82;5.28;;;;;;;;;;5001529;28;92557;-76
2022/04/20 03:32:44;;;;;;;8.27;5.63;;;;;;;;;;5003582;28;93918;-77
2022/04/20 03:35:10;;;;;;;5.30;4.90;;;;;;;;;;5004491;28;95908;-76
2022/04/20 03:37:36;;;;;;;6.75;5.10;;;;;;;;;;5004796;28;94136;-76
2022/04/20 03:40:08;;;;;;;5.80;5.10;;;;;;;;;;5004242;28;93125;-76
2022/04/20 03:42:34;;;;;;;9.98;5.45;;;;;;;;;;5006642;28;94108;-76
2022/04/20 03:45:01;;;;;;;5.68;4.80;;;;;;;;;;5001240;28;92577;-76
2022/04/20 03:47:27;;;;;;;5.60;5.07;;;;;;;;;;5004987;28;95733;-76
2022/04/20 03:49:54;;;;;;;6.93;4.70;;;;;;;;;;5005432;28;97963;-76
2022/04/20 03:52:20;;;;;;;5.65;4.95;;;;;;;;;;5004173;28;96065;-76
2022/04/20 03:54:47;;;;;;;7.13;4.57;;;;;;;;;;5002649;28;95637;-76
2022/04/20 03:57:14;;;;;;;5.53;5.03;;;;;;;;;;5004133;28;92563;-76
2022/04/20 03:59:45;;;;;;;7.63;4.85;;;;;;;;;;5002583;28;94755;-76
2022/04/20 04:02:14;;;;;;;4.43;4.05;;;;;;;;;;5003729;28;95474;-76
2022/04/20 04:04:48;;;;;;;5.13;4.45;;;;;;;;;;5003145;28;92552;-76
2022/04/20 04:07:23;;;;;;;9.05;4.70;;;;;;;;;;5003777;28;95501;-76
2022/04/20 04:09:49;;;;;;;6.78;5.07;;;;;;;;;;5005033;28;96042;-76
2022/04/20 04:12:20;;;;;;;4.88;4.55;;;;;;;;;;5010326;28;92602;-76
2022/04/20 04:14:50;;;;;;;5.05;4.68;;;;;;;;;;5004078;28;97588;-76
2022/04/20 04:17:17;;;;;;;5.53;4.85;;;;;;;;;;5022613;27;92542;-76
2022/04/20 04:19:45;;;;;;;5.43;4.90;;;;;;;;;;5007227;28;94870;-76
2022/04/20 04:22:12;;;;;;;5.35;4.88;;;;;;;;;;5000620;28;95799;-76
2022/04/20 04:24:46;;;;;;;6.55;4.95;;;;;;;;;;5018343;28;93517;-76
2022/04/20 04:27:16;;;;;;;8.05;4.75;;;;;;;;;;4996722;28;95075;-76
2022/04/20 04:29:43;;;;;;;5.30;4.82;;;;;;;;;;4991639;28;95386;-76
2022/04/20 04:32:12;;;;;;;5.00;4.60;;;;;;;;;;5033833;27;92145;-76
2022/04/20 04:34:39;;;;;;;5.70;5.10;;;;;;;;;;4993541;28;93037;-76
2022/04/20 04:37:10;;;;;;;4.97;4.57;;;;;;;;;;4993716;28;93283;-76
2022/04/20 04:39:36;;;;;;;4.72;4.22;;;;;;;;;;4991669;28;94953;-76
2022/04/20 04:42:06;;;;;;;5.57;4.53;;;;;;;;;;4993867;28;93035;-77
2022/04/20 04:44:34;;;;;;;9.40;4.50;;;;;;;;;;4992724;28;92612;-76
2022/04/20 04:49:59;;;;;;;8.95;4.32;;;;;;;;;;5005934;28;95880;-76
2022/04/20 04:52:27;;;;;;;6.50;4.32;;;;;;;;;;5006950;28;92554;-76
2022/04/20 04:55:02;;;;;;;4.35;3.95;;;;;;;;;;5009085;28;95131;-76
2022/04/20 04:57:33;;;;;;;4.03;3.72;;;;;;;;;;5006339;28;92558;-76
2022/04/20 04:59:59;;;;;;;5.80;4.05;;;;;;;;;;5006003;28;94934;-76
2022/04/20 05:02:26;;;;;;;5.47;3.70;;;;;;;;;;5005606;28;95131;-76
2022/04/20 05:04:53;;;;;;;4.50;4.07;;;;;;;;;;5004113;28;94925;-76
2022/04/20 05:07:19;;;;;;;4.65;4.10;;;;;;;;;;5003809;28;95300;-76
2022/04/20 05:09:54;;;;;;;4.63;4.28;;;;;;;;;;5001776;28;93192;-76
2022/04/20 05:12:20;;;;;;;4.45;4.05;;;;;;;;;;5007618;28;93914;-76
2022/04/20 05:14:48;;;;;;;4.50;4.13;;;;;;;;;;5009045;28;93780;-76
2022/04/20 05:17:15;;;;;;;7.72;4.22;;;;;;;;;;5006674;28;93162;-76
2022/04/20 05:19:43;;;;;;;5.43;3.88;;;;;;;;;;5003664;28;95232;-76
2022/04/20 05:22:16;;;;;;;3.88;3.58;;;;;;;;;;5006103;28;94439;-76
2022/04/20 05:24:42;;;;;;;4.40;3.40;;;;;;;;;;5004479;28;94577;-76
2022/04/20 05:27:13;;;;;;;3.95;3.63;;;;;;;;;;5005828;28;93241;-76
2022/04/20 05:30:06;;;;;;;5.00;4.10;;;;;;;;;;5000532;28;95670;-75
2022/04/20 05:32:33;;;;;;;4.47;3.60;;;;;;;;;;5004422;28;92605;-76
2022/04/20 05:35:03;;;;;;;5.18;3.97;;;;;;;;;;5004059;28;95055;-76
2022/04/20 05:43:07;;;;;;;6.90;3.92;;;;;;;;;;5005066;28;95337;-75
2022/04/20 05:45:33;;;;;;;4.38;3.90;;;;;;;;;;5009421;28;93422;-75
2022/04/20 05:48:25;;;;;;;4.30;3.50;;;;;;;;;;5012864;28;95387;-76
2022/04/20 05:50:53;;;;;;;3.90;3.47;;;;;;;;;;5006091;28;94467;-76
2022/04/20 05:53:22;;;;;;;3.95;3.20;;;;;;;;;;5005403;28;93036;-76
2022/04/20 05:55:50;;;;;;;9.65;3.70;;;;;;;;;;5004379;28;95398;-77
2022/04/20 05:58:16;;;;;;;3.30;3.00;;;;;;;;;;5004947;28;94118;-75
2022/04/20 06:00:44;;;;;;;6.82;3.33;;;;;;;;;;5004373;28;94501;-76
2022/04/20 06:03:30;;;;;;;2.83;2.72;;;;;;;;;;5003691;28;92732;-75
2022/04/20 06:06:06;;;;;;;3.30;2.83;;;;;;;;;;4999315;28;94356;-75
2022/04/20 06:08:58;;;;;;;4.13;3.33;;;;;;;;;;4999304;28;93546;-75
2022/04/20 06:11:54;;;;;;;4.07;3.00;;;;;;;;;;4971928;28;93021;-75
2022/04/20 06:14:24;;;;;;;2.80;2.65;;;;;;;;;;5004051;28;92481;-76
2022/04/20 06:17:00;;;;;;;3.50;2.85;;;;;;;;;;4999867;28;92524;-76
2022/04/20 06:19:34;;;;;;;3.65;3.22;;;;;;;;;;5001974;28;93723;-76
2022/04/20 06:22:18;;;;;;;4.50;3.30;;;;;;;;;;5000792;28;96523;-76
2022/04/20 06:25:03;;;;;;;4.28;3.60;;;;;;;;;;4994026;28;93824;-78
2022/04/20 06:27:45;;;;;;;5.93;2.97;;;;;;;;;;5002308;28;94496;-77
2022/04/20 06:30:41;;;;;;;3.20;3.00;;;;;;;;;;4991942;28;95510;-76
2022/04/20 06:33:28;;;;;;;11.43;3.00;;;;;;;;;;4980937;28;95640;-76
2022/04/20 06:36:09;;;;;;;3.13;2.83;;;;;;;;;;5004626;28;92583;-76
2022/04/20 06:38:36;;;;;;;2.83;2.63;;;;;;;;;;4993776;28;93539;-76
2022/04/20 06:41:12;;;;;;;5.38;2.85;;;;;;;;;;4992406;28;93491;-76
2022/04/20 06:44:00;;;;;;;3.22;2.90;;;;;;;;;;4992475;28;92494;-76
2022/04/20 06:46:45;;;;;;;4.30;2.95;;;;;;;;;;4981588;28;95607;-76
2022/04/20 06:49:21;;;;;;;3.17;2.97;;;;;;;;;;4995179;28;99460;-76
2022/04/20 07:00:39;;;;;;;5.28;2.60;;;;;;;;;;4990750;28;95306;-76
2022/04/20 07:03:11;;;;;;;6.50;3.25;;;;;;;;;;4993145;28;95113;-76
2022/04/20 07:05:57;;;;;;;2.92;2.60;;;;;;;;;;4982871;28;92532;-77
2022/04/20 07:08:33;;;;;;;2.95;2.75;;;;;;;;;;4992436;28;95310;-76
2022/04/20 07:11:08;;;;;;;4.75;3.22;;;;;;;;;;5007728;28;93948;-77
2022/04/20 07:13:36;;;;;;;3.03;2.67;;;;;;;;;;4989528;28;93093;-73
2022/04/20 07:16:04;;;;;;;4.88;3.00;;;;;;;;;;4984201;28;98124;-76
2022/04/20 07:18:33;;;;;;;6.97;2.90;;;;;;;;;;4986947;28;92531;-76
2022/04/20 07:21:00;;;;;;;3.22;3.00;;;;;;;;;;4981185;28;92933;-76
2022/04/20 07:23:58;;;;;;;9.38;2.95;;;;;;;;;;4956609;28;93767;-76
2022/04/20 07:26:43;;;;;;;2.83;2.60;;;;;;;;;;4989871;28;94230;-76
2022/04/20 07:29:21;;;;;;;5.43;3.47;;;;;;;;;;4984563;28;94218;-76
2022/04/20 07:32:10;;;;;;;2.88;2.67;;;;;;;;;;4990901;28;93000;-77
2022/04/20 07:34:49;;;;;;;2.97;2.78;;;;;;;;;;4993476;28;93114;-77
2022/04/20 07:37:26;;;;;;;4.72;2.80;;;;;;;;;;4996191;28;93633;-79
2022/04/20 07:40:15;;;;;;;6.43;2.38;;;;;;;;;;5000511;28;92611;-77
2022/04/20 07:42:53;;;;;;;7.43;3.05;;;;;;;;;;5010422;28;95444;-77
2022/04/20 07:45:36;;;;;;;2.95;2.75;;;;;;;;;;5010146;28;95534;-77
2022/04/20 07:48:22;;;;;;;2.90;2.65;;;;;;;;;;5011622;28;92453;-77
2022/04/20 07:51:17;;;;;;;3.20;2.90;;;;;;;;;;4991646;28;92580;-77
2022/04/20 07:54:02;;;;;;;3.80;3.08;;;;;;;;;;5012663;28;92784;-77
2022/04/20 07:56:54;;;;;;;5.37;3.07;;;;;;;;;;5012972;28;92687;-77
2022/04/20 07:59:31;;;;;;;3.38;2.65;;;;;;;;;;5010907;28;93547;-77
2022/04/20 08:02:11;;;;;;;5.55;2.92;;;;;;;;;;5010881;28;92833;-76
2022/04/20 08:04:56;;;;;;;2.92;2.72;;;;;;;;;;4993185;28;92613;-77
2022/04/20 08:07:26;;;;;;;3.03;2.78;;;;;;;;;;4990253;28;95607;-77
2022/04/20 08:09:53;;;;;;;5.53;3.22;;;;;;;;;;4989325;28;95319;-77
2022/04/20 08:12:19;;;;;;;3.22;3.00;;;;;;;;;;4991918;28;95048;-77
2022/04/20 08:14:46;;;;;;;3.75;2.80;;;;;;;;;;4990952;28;93362;-77
2022/04/20 08:17:25;;;;;;;3.30;2.78;;;;;;;;;;5007261;28;92550;-77
2022/04/20 08:20:10;;;;;;;5.72;2.97;;;;;;;;;;4990463;28;92436;-77
2022/04/20 08:22:57;;;;;;;2.80;2.58;;;;;;;;;;4991035;28;95733;-77
2022/04/20 08:25:23;;;;;;;2.67;2.47;;;;;;;;;;4995227;28;92537;-77
2022/04/20 08:27:49;;;;;;;3.17;2.70;;;;;;;;;;4991954;28;93773;-77
2022/04/20 08:30:16;;;;;;;4.43;3.10;;;;;;;;;;4992238;28;92450;-77
2022/04/20 08:32:42;;;;;;;3.25;2.72;;;;;;;;;;4992180;28;92548;-77
2022/04/20 08:35:09;;;;;;;9.77;3.15;;;;;;;;;;4989584;28;95826;-77
2022/04/20 08:37:41;;;;;;;4.55;2.78;;;;;;;;;;4991954;28;92420;-77
2022/04/20 08:40:07;;;;;;;4.38;2.80;;;;;;;;;;4992124;28;93867;-77
2022/04/20 08:42:34;;;;;;;7.93;3.65;;;;;;;;;;4991054;28;94253;-77
2022/04/20 08:45:02;;;;;;;3.72;2.67;;;;;;;;;;4995170;28;92408;-77
2022/04/20 08:47:33;;;;;;;3.92;3.20;;;;;;;;;;4990882;28;94599;-77
2022/04/20 08:50:01;;;;;;;2.58;2.38;;;;;;;;;;4991903;28;92461;-77
2022/04/20 08:52:46;;;;;;;5.97;2.75;;;;;;;;;;4992588;28;92992;-77
2022/04/20 08:55:14;;;;;;;7.25;2.55;;;;;;;;;;4994479;28;93536;-77
2022/04/20 08:57:43;;;;;;;2.92;2.17;;;;;;;;;;4995278;28;92627;-77
2022/04/20 09:00:11;;;;;;;4.18;2.17;;;;;;;;;;4993698;28;95054;-77
2022/04/20 09:02:37;;;;;;;1.95;1.85;;;;;;;;;;4993888;28;93125;-77
2022/04/20 09:05:04;;;;;;;2.58;2.38;;;;;;;;;;4995290;28;93214;-77
2022/04/20 09:07:32;;;;;;;2.08;1.98;;;;;;;;;;4997793;28;93728;-77
2022/04/20 09:09:58;;;;;;;2.90;2.28;;;;;;;;;;4993466;28;92537;-77
2022/04/20 09:12:26;;;;;;;3.20;2.47;;;;;;;;;;4994398;28;93796;-77
2022/04/20 09:14:53;;;;;;;5.25;1.90;;;;;;;;;;4985801;28;95985;-77
2022/04/20 09:17:21;;;;;;;2.70;1.90;;;;;;;;;;4974753;28;92081;-77
2022/04/20 09:19:51;;;;;;;4.10;1.90;;;;;;;;;;4975193;28;93346;-77
2022/04/20 09:22:19;;;;;;;2.42;1.92;;;;;;;;;;4989956;28;93188;-77
2022/04/20 09:25:08;;;;;;;2.72;2.08;;;;;;;;;;4992390;28;95026;-77
2022/04/20 09:27:35;;;;;;;5.13;2.40;;;;;;;;;;4994366;28;96314;-77
2022/04/20 09:30:04;;;;;;;2.13;1.92;;;;;;;;;;4997286;28;94168;-77
2022/04/20 09:32:35;;;;;;;3.83;2.20;;;;;;;;;;4994714;28;94163;-77
2022/04/20 09:35:03;;;;;;;2.22;2.00;;;;;;;;;;4995042;28;94135;-77
2022/04/20 09:37:30;;;;;;;2.88;1.90;;;;;;;;;;4993754;28;92507;-77
2022/04/20 09:40:13;;;;;;;2.80;1.98;;;;;;;;;;4993237;28;95195;-77
2022/04/20 09:42:58;;;;;;;5.50;2.00;;;;;;;;;;4994634;28;93384;-77
2022/04/20 09:45:24;;;;;;;3.33;1.92;;;;;;;;;;4993685;28;92783;-77
2022/04/20 09:50:35;;;;;;;2.30;2.00;;;;;;;;;;4992722;28;96505;-77
2022/04/20 09:53:05;;;;;;;2.17;2.08;;;;;;;;;;4997194;28;92456;-77
2022/04/20 09:55:36;;;;;;;5.18;1.88;;;;;;;;;;4994117;28;94302;-77
2022/04/20 09:58:11;;;;;;;2.67;2.40;;;;;;;;;;4994161;28;92630;-77
2022/04/20 10:00:42;;;;;;;2.00;1.90;;;;;;;;;;4994196;28;93971;-77
2022/04/20 10:03:08;;;;;;;1.92;1.70;;;;;;;;;;4994792;28;94410;-77
2022/04/20 10:05:37;;;;;;;7.68;2.28;;;;;;;;;;4992312;28;92532;-77
2022/04/20 10:08:04;;;;;;;3.45;2.28;;;;;;;;;;4994839;28;93704;-76
2022/04/20 10:10:31;;;;;;;4.97;2.30;;;;;;;;;;4991930;28;93586;-82
2022/04/20 10:12:58;;;;;;;2.78;1.35;;;;;;;;;;4994909;28;92679;-81
2022/04/20 10:18:15;;;;;;;3.67;1.88;;;;;;;;;;4975132;28;92545;-80
2022/04/20 10:20:45;;;;;;;2.65;2.45;;;;;;;;;;4982855;28;93894;-81
2022/04/20 10:23:12;;;;;;;1.88;1.77;;;;;;;;;;4994112;28;93683;-80
2022/04/20 10:25:40;;;;;;;3.60;1.70;;;;;;;;;;4993823;28;92447;-81
2022/04/20 10:28:19;;;;;;;4.28;2.17;;;;;;;;;;4978146;28;92930;-81
2022/04/20 10:31:09;;;;;;;2.70;2.50;;;;;;;;;;4974498;28;93217;-80
2022/04/20 10:33:38;;;;;;;2.50;2.30;;;;;;;;;;4972559;28;92690;-81
2022/04/20 10:36:27;;;;;;;2.15;2.05;;;;;;;;;;4972653;28;93568;-79
2022/04/20 10:39:16;;;;;;;2.42;2.15;;;;;;;;;;4981832;28;94017;-80
2022/04/20 10:42:05;;;;;;;4.53;2.08;;;;;;;;;;4991137;28;95460;-81
2022/04/20 10:44:50;;;;;;;2.28;2.10;;;;;;;;;;4994147;28;94602;-81
2022/04/20 10:47:20;;;;;;;5.00;2.38;;;;;;;;;;4997419;28;92948;-79
2022/04/20 10:49:49;;;;;;;3.25;2.05;;;;;;;;;;5013881;28;93271;-80
2022/04/20 10:52:29;;;;;;;3.75;1.90;;;;;;;;;;5013415;28;93149;-79
2022/04/20 10:54:56;;;;;;;2.42;2.13;;;;;;;;;;4997909;28;92614;-76
2022/04/20 10:57:33;;;;;;;3.63;1.83;;;;;;;;;;4991831;28;94992;-76
2022/04/20 11:00:18;;;;;;;4.22;2.17;;;;;;;;;;4997050;28;93365;-76
2022/04/20 11:02:50;;;;;;;6.45;2.10;;;;;;;;;;4992366;28;92847;-76
2022/04/20 11:05:26;;;;;;;4.60;2.03;;;;;;;;;;4993526;28;93411;-76
2022/04/20 11:08:11;;;;;;;4.40;2.10;;;;;;;;;;4991691;28;94870;-76
2022/04/20 11:18:38;;;;;;;3.20;2.30;;;;;;;;;;4993092;28;95657;-77
2022/04/20 11:19:11;;;;;;;2.10;1.83;;;;;;;;;;4988612;28;95134;-76
2022/04/20 11:21:52;;;;;;;3.50;2.28;;;;;;;;;;4971411;28;93173;-76
2022/04/20 11:24:25;;;;;;;4.00;2.40;;;;;;;;;;4983179;28;92662;-76
2022/04/20 11:26:52;;;;;;;2.13;1.98;;;;;;;;;;4992865;28;92596;-76
2022/04/20 11:29:22;;;;;;;2.40;2.00;;;;;;;;;;4992283;28;92449;-76
2022/04/20 11:31:50;;;;;;;1.83;1.73;;;;;;;;;;4992809;28;92925;-76
2022/04/20 11:34:19;;;;;;;2.60;2.40;;;;;;;;;;4990727;28;95514;-76
2022/04/20 11:36:48;;;;;;;2.10;1.90;;;;;;;;;;4992319;28;92503;-77
2022/04/20 11:39:15;;;;;;;2.22;2.05;;;;;;;;;;4992745;28;92998;-76
2022/04/20 11:41:46;;;;;;;3.63;1.85;;;;;;;;;;4992363;28;94747;-76
2022/04/20 11:44:22;;;;;;;2.05;1.95;;;;;;;;;;4992051;28;92832;-76
2022/04/20 11:47:01;;;;;;;2.13;1.95;;;;;;;;;;4995796;28;93953;-76
2022/04/20 11:49:31;;;;;;;3.25;2.30;;;;;;;;;;4992430;28;92429;-76
2022/04/20 11:51:58;;;;;;;2.15;2.05;;;;;;;;;;4992609;28;94199;-76
2022/04/20 11:54:27;;;;;;;5.10;2.10;;;;;;;;;;4991787;28;94335;-76
2022/04/20 11:57:20;;;;;;;1.88;1.77;;;;;;;;;;4970941;28;92854;-76
2022/04/20 11:59:47;;;;;;;1.80;1.70;;;;;;;;;;4971539;28;95785;-76
2022/04/20 12:02:14;;;;;;;4.30;1.73;;;;;;;;;;4972758;28;94208;-76
2022/04/20 12:04:42;;;;;;;6.53;2.05;;;;;;;;;;4974342;28;92716;-76
2022/04/20 12:07:10;;;;;;;1.75;1.65;;;;;;;;;;4991421;28;94873;-76
2022/04/20 12:09:38;;;;;;;2.85;1.80;;;;;;;;;;4994913;28;94191;-76
2022/04/20 12:12:06;;;;;;;5.03;1.73;;;;;;;;;;4991674;28;93917;-76
2022/04/20 12:14:37;;;;;;;2.05;1.85;;;;;;;;;;4991828;28;93283;-76
2022/04/20 12:17:05;;;;;;;1.77;1.67;;;;;;;;;;4993115;28;91778;-76
2022/04/20 12:19:35;;;;;;;1.95;1.60;;;;;;;;;;4990149;28;95475;-76
2022/04/20 12:22:03;;;;;;;1.63;1.52;;;;;;;;;;4992274;28;94204;-76
2022/04/20 12:24:29;;;;;;;4.97;1.80;;;;;;;;;;4990759;28;94967;-75
2022/04/20 12:26:56;;;;;;;6.35;2.20;;;;;;;;;;4986905;28;95568;-76
2022/04/20 12:29:24;;;;;;;1.45;1.30;;;;;;;;;;4993997;28;93362;-76
2022/04/20 12:31:51;;;;;;;1.90;1.80;;;;;;;;;;4999066;28;92471;-76
2022/04/20 12:34:18;;;;;;;3.58;1.70;;;;;;;;;;4994921;28;94232;-76
2022/04/20 12:36:58;;;;;;;1.67;1.58;;;;;;;;;;4994253;28;92627;-76
2022/04/20 12:39:42;;;;;;;3.00;1.67;;;;;;;;;;4995260;28;93775;-76
2022/04/20 12:42:09;;;;;;;1.67;1.60;;;;;;;;;;4995584;28;92575;-76
2022/04/20 12:44:39;;;;;;;4.30;2.03;;;;;;;;;;4995434;28;92983;-76
2022/04/20 12:47:06;;;;;;;2.08;1.98;;;;;;;;;;4994898;28;94020;-76
2022/04/20 12:49:32;;;;;;;4.05;2.00;;;;;;;;;;4993472;28;95677;-76
2022/04/20 12:52:05;;;;;;;2.65;1.90;;;;;;;;;;4994995;28;92489;-76
2022/04/20 12:54:31;;;;;;;5.03;1.92;;;;;;;;;;4997762;28;92944;-76
2022/04/20 13:02:28;;;;;;;3.08;2.55;;;;;;;;;;4994232;28;94163;-76
2022/04/20 13:04:54;;;;;;;2.35;1.95;;;;;;;;;;4995492;28;92978;-74
2022/04/20 13:07:21;;;;;;;2.25;2.15;;;;;;;;;;4995658;28;93136;-77
2022/04/20 13:09:47;;;;;;;2.00;1.90;;;;;;;;;;4992370;28;93444;-76
2022/04/20 13:12:14;;;;;;;4.95;2.63;;;;;;;;;;4986958;28;92515;-76
2022/04/20 13:14:41;;;;;;;2.00;1.90;;;;;;;;;;4981752;28;95553;-76
2022/04/20 13:17:09;;;;;;;6.78;2.60;;;;;;;;;;4993739;28;92461;-77
2022/04/20 13:19:36;;;;;;;2.13;1.98;;;;;;;;;;4994600;28;93417;-78
2022/04/20 13:22:03;;;;;;;8.52;2.30;;;;;;;;;;4985964;28;93339;-77
2022/04/20 13:30:00;;;;;;;3.40;2.05;;;;;;;;;;4983275;28;94197;-77
2022/04/20 13:32:27;;;;;;;3.38;2.47;;;;;;;;;;4978923;28;91829;-76
2022/04/20 13:34:53;;;;;;;2.90;1.85;;;;;;;;;;4990500;28;93277;-77
2022/04/20 13:37:19;;;;;;;5.53;3.00;;;;;;;;;;4996722;28;93524;-76
2022/04/20 13:39:46;;;;;;;3.92;2.10;;;;;;;;;;4978825;28;96244;-76
2022/04/20 13:42:13;;;;;;;4.22;1.90;;;;;;;;;;4984660;28;93468;-76
2022/04/20 13:44:39;;;;;;;3.78;2.00;;;;;;;;;;4986015;28;92589;-76
2022/04/20 13:47:05;;;;;;;2.20;2.08;;;;;;;;;;4981723;28;94292;-76
2022/04/20 13:49:32;;;;;;;2.90;2.05;;;;;;;;;;4989643;28;94130;-76
2022/04/20 13:51:58;;;;;;;3.80;1.80;;;;;;;;;;4984251;28;92499;-76
2022/04/20 13:54:25;;;;;;;2.20;2.00;;;;;;;;;;4984088;28;93086;-76
2022/04/20 13:56:51;;;;;;;2.08;1.98;;;;;;;;;;4983185;28;92938;-76
2022/04/20 13:59:18;;;;;;;1.98;1.60;;;;;;;;;;4990010;28;92555;-76
2022/04/20 14:01:44;;;;;;;2.20;1.77;;;;;;;;;;4987947;28;94398;-76
2022/04/20 14:04:11;;;;;;;2.55;1.83;;;;;;;;;;4985604;28;95465;-76
2022/04/20 14:06:37;;;;;;;2.00;1.88;;;;;;;;;;4986071;28;96422;-76
2022/04/20 14:09:04;;;;;;;1.98;1.77;;;;;;;;;;4991311;28;94257;-76
2022/04/20 14:11:31;;;;;;;3.67;1.63;;;;;;;;;;4991312;28;92810;-76
2022/04/20 14:13:58;;;;;;;1.98;1.65;;;;;;;;;;4991467;28;94043;-76
2022/04/20 14:16:27;;;;;;;2.65;1.42;;;;;;;;;;4992704;28;94817;-76
2022/04/20 14:18:53;;;;;;;5.03;1.55;;;;;;;;;;4981842;28;92626;-76
2022/04/20 14:21:20;;;;;;;3.85;2.38;;;;;;;;;;4993797;28;93896;-76
2022/04/20 14:23:46;;;;;;;3.00;1.90;;;;;;;;;;4984891;28;95316;-76
2022/04/20 14:34:28;;;;;;;1.95;1.42;;;;;;;;;;4984688;27;93344;-76
2022/04/20 14:36:54;;;;;;;2.45;1.83;;;;;;;;;;4990104;28;93388;-76
2022/04/20 14:39:24;;;;;;;3.17;1.90;;;;;;;;;;4987624;28;94265;-76
2022/04/20 14:41:50;;;;;;;5.00;1.77;;;;;;;;;;4993964;28;92937;-76
2022/04/20 14:44:17;;;;;;;3.17;2.03;;;;;;;;;;4988745;28;94275;-77
2022/04/20 14:46:43;;;;;;;5.95;1.55;;;;;;;;;;4987245;28;93399;-76
2022/04/20 14:49:10;;;;;;;2.88;1.73;;;;;;;;;;4993553;28;92505;-76
2022/04/20 14:51:36;;;;;;;3.30;1.75;;;;;;;;;;4982069;28;94278;-77
2022/04/20 14:54:02;;;;;;;1.55;1.33;;;;;;;;;;4988247;28;96608;-77
2022/04/20 14:56:29;;;;;;;4.13;1.60;;;;;;;;;;4990513;28;94411;-77
2022/04/20 14:58:59;;;;;;;1.40;1.30;;;;;;;;;;4986682;28;92810;-77
2022/04/20 15:01:25;;;;;;;3.00;2.15;;;;;;;;;;4977288;28;93893;-77
2022/04/20 15:03:58;;;;;;;2.03;1.45;;;;;;;;;;4990265;28;94224;-77
2022/04/20 15:06:24;;;;;;;4.85;1.98;;;;;;;;;;4992810;28;94045;-77
2022/04/20 15:08:50;;;;;;;2.67;1.80;;;;;;;;;;5007588;28;94310;-77
2022/04/20 15:11:17;;;;;;;2.95;1.95;;;;;;;;;;4997732;28;92487;-77
2022/04/20 15:13:45;;;;;;;1.83;1.73;;;;;;;;;;5012959;28;93146;-77
2022/04/20 15:16:11;;;;;;;4.95;2.10;;;;;;;;;;5001386;28;93543;-77
2022/04/20 15:18:41;;;;;;;3.63;1.70;;;;;;;;;;4999176;28;94961;-74
2022/04/20 15:21:07;;;;;;;2.47;2.28;;;;;;;;;;4983811;28;96331;-74
2022/04/20 15:23:52;;;;;;;2.20;1.85;;;;;;;;;;4990850;28;94238;-73
2022/04/20 15:26:19;;;;;;;1.92;1.80;;;;;;;;;;4983976;28;94067;-73
2022/04/20 15:28:45;;;;;;;8.25;2.00;;;;;;;;;;4993432;28;94199;-77
2022/04/20 15:31:14;;;;;;;1.55;1.55;;;;;;;;;;4985759;28;92474;-77
2022/04/20 15:33:41;;;;;;;4.15;2.30;;;;;;;;;;4987617;28;93618;-77
2022/04/20 15:36:07;;;;;;;3.92;1.80;;;;;;;;;;4989714;28;93848;-77
2022/04/20 15:38:34;;;;;;;2.47;1.95;;;;;;;;;;4984085;28;93283;-77
2022/04/20 15:41:01;;;;;;;1.85;1.75;;;;;;;;;;4982581;28;94261;-76
2022/04/20 15:43:32;;;;;;;4.78;2.30;;;;;;;;;;4988105;28;96666;-76
2022/04/20 15:45:58;;;;;;;2.00;1.83;;;;;;;;;;4983273;28;93552;-76
2022/04/20 15:48:25;;;;;;;2.80;2.10;;;;;;;;;;4994878;28;92567;-76
2022/04/20 15:50:51;;;;;;;3.22;2.40;;;;;;;;;;4987222;28;92649;-75
2022/04/20 15:53:18;;;;;;;2.30;2.10;;;;;;;;;;4985021;28;94265;-75
2022/04/20 16:01:14;;;;;;;4.75;2.45;;;;;;;;;;4993336;28;93863;-74
2022/04/20 16:03:41;;;;;;;2.55;2.35;;;;;;;;;;4984418;28;94101;-75
2022/04/20 16:06:09;;;;;;;2.58;2.38;;;;;;;;;;4998630;28;93924;-75